sensor_id;sensor_type;location;lat;lon;timestamp;temperature;humidity
80380;DHT22;69690;48.158;17.134;2023-06-14T00:03:49;17.30;52.00
80380;DHT22;69690;48.158;17.134;2023-06-14T00:08:50;17.20;52.20
80380;DHT22;69690;48.158;17.134;2023-06-14T00:13:52;17.20;52.30
80380;DHT22;69690;48.158;17.134;2023-06-14T00:18:56;17.20;52.40
80380;DHT22;69690;48.158;17.134;2023-06-14T00:23:58;17.10;52.10
80380;DHT22;69690;48.158;17.134;2023-06-14T00:29:00;17.10;52.00
80380;DHT22;69690;48.158;17.134;2023-06-14T00:34:01;17.10;52.20
80380;DHT22;69690;48.158;17.134;2023-06-14T00:39:02;17.10;52.30
80380;DHT22;69690;48.158;17.134;2023-06-14T00:44:04;17.00;52.00
80380;DHT22;69690;48.158;17.134;2023-06-14T00:49:06;17.00;51.50
80380;DHT22;69690;48.158;17.134;2023-06-14T00:54:08;17.00;51.50
80380;DHT22;69690;48.158;17.134;2023-06-14T00:59:11;16.90;51.30
80380;DHT22;69690;48.158;17.134;2023-06-14T01:04:12;16.80;51.30
80380;DHT22;69690;48.158;17.134;2023-06-14T01:09:43;16.80;51.40
80380;DHT22;69690;48.158;17.134;2023-06-14T01:14:51;16.80;51.30
80380;DHT22;69690;48.158;17.134;2023-06-14T01:19:53;16.80;51.40
80380;DHT22;69690;48.158;17.134;2023-06-14T01:24:58;16.70;51.50
80380;DHT22;69690;48.158;17.134;2023-06-14T01:30:02;16.70;51.90
80380;DHT22;69690;48.158;17.134;2023-06-14T01:35:04;16.60;52.50
80380;DHT22;69690;48.158;17.134;2023-06-14T01:40:07;16.50;52.60
80380;DHT22;69690;48.158;17.134;2023-06-14T01:45:11;16.40;53.20
80380;DHT22;69690;48.158;17.134;2023-06-14T01:50:13;16.40;53.60
80380;DHT22;69690;48.158;17.134;2023-06-14T01:55:14;16.30;53.90
80380;DHT22;69690;48.158;17.134;2023-06-14T02:00:19;16.30;54.00
80380;DHT22;69690;48.158;17.134;2023-06-14T02:05:20;16.20;53.90
80380;DHT22;69690;48.158;17.134;2023-06-14T02:10:22;16.20;54.00
80380;DHT22;69690;48.158;17.134;2023-06-14T02:15:25;16.20;54.00
80380;DHT22;69690;48.158;17.134;2023-06-14T02:20:34;16.20;53.90
80380;DHT22;69690;48.158;17.134;2023-06-14T02:25:36;16.20;54.30
80380;DHT22;69690;48.158;17.134;2023-06-14T02:30:37;16.20;55.00
80380;DHT22;69690;48.158;17.134;2023-06-14T02:35:39;16.20;55.90
80380;DHT22;69690;48.158;17.134;2023-06-14T02:40:41;16.10;56.00
80380;DHT22;69690;48.158;17.134;2023-06-14T02:45:43;16.00;55.70
80380;DHT22;69690;48.158;17.134;2023-06-14T02:50:44;16.00;55.90
80380;DHT22;69690;48.158;17.134;2023-06-14T02:55:46;15.90;55.80
80380;DHT22;69690;48.158;17.134;2023-06-14T03:00:48;15.90;55.80
80380;DHT22;69690;48.158;17.134;2023-06-14T03:05:50;15.80;55.50
80380;DHT22;69690;48.158;17.134;2023-06-14T03:10:56;15.80;55.30
80380;DHT22;69690;48.158;17.134;2023-06-14T03:15:58;15.80;55.20
80380;DHT22;69690;48.158;17.134;2023-06-14T03:21:02;15.90;54.90
80380;DHT22;69690;48.158;17.134;2023-06-14T03:26:04;16.00;54.80
80380;DHT22;69690;48.158;17.134;2023-06-14T03:31:06;16.00;54.60
80380;DHT22;69690;48.158;17.134;2023-06-14T03:36:10;16.10;54.60
80380;DHT22;69690;48.158;17.134;2023-06-14T03:41:11;16.10;54.60
80380;DHT22;69690;48.158;17.134;2023-06-14T03:46:13;16.10;54.20
80380;DHT22;69690;48.158;17.134;2023-06-14T03:51:15;16.10;54.20
80380;DHT22;69690;48.158;17.134;2023-06-14T03:56:16;16.10;53.60
80380;DHT22;69690;48.158;17.134;2023-06-14T04:01:20;16.10;53.70
80380;DHT22;69690;48.158;17.134;2023-06-14T04:06:22;16.10;53.80
80380;DHT22;69690;48.158;17.134;2023-06-14T04:11:25;16.10;53.60
80380;DHT22;69690;48.158;17.134;2023-06-14T04:16:27;16.00;53.50
80380;DHT22;69690;48.158;17.134;2023-06-14T04:21:29;16.10;53.40
80380;DHT22;69690;48.158;17.134;2023-06-14T04:26:30;16.10;53.10
80380;DHT22;69690;48.158;17.134;2023-06-14T04:31:34;16.20;53.00
80380;DHT22;69690;48.158;17.134;2023-06-14T04:36:39;16.20;52.90
80380;DHT22;69690;48.158;17.134;2023-06-14T04:41:43;16.20;53.30
80380;DHT22;69690;48.158;17.134;2023-06-14T04:46:45;16.10;54.00
80380;DHT22;69690;48.158;17.134;2023-06-14T04:51:48;16.00;53.20
80380;DHT22;69690;48.158;17.134;2023-06-14T04:56:52;16.10;53.10
80380;DHT22;69690;48.158;17.134;2023-06-14T05:01:55;16.10;52.60
80380;DHT22;69690;48.158;17.134;2023-06-14T05:06:57;16.20;52.40
80380;DHT22;69690;48.158;17.134;2023-06-14T05:11:59;16.30;52.50
80380;DHT22;69690;48.158;17.134;2023-06-14T05:17:01;16.50;52.20
80380;DHT22;69690;48.158;17.134;2023-06-14T05:22:07;16.50;51.70
80380;DHT22;69690;48.158;17.134;2023-06-14T05:27:08;16.60;52.00
80380;DHT22;69690;48.158;17.134;2023-06-14T05:32:09;16.70;52.40
80380;DHT22;69690;48.158;17.134;2023-06-14T05:37:11;16.90;52.60
80380;DHT22;69690;48.158;17.134;2023-06-14T05:42:12;17.00;52.70
80380;DHT22;69690;48.158;17.134;2023-06-14T05:47:13;17.10;53.30
80380;DHT22;69690;48.158;17.134;2023-06-14T05:52:14;17.20;54.50
80380;DHT22;69690;48.158;17.134;2023-06-14T05:57:16;17.30;54.40
80380;DHT22;69690;48.158;17.134;2023-06-14T06:02:17;17.20;53.90
80380;DHT22;69690;48.158;17.134;2023-06-14T06:07:18;17.30;53.90
80380;DHT22;69690;48.158;17.134;2023-06-14T06:12:20;17.40;53.70
80380;DHT22;69690;48.158;17.134;2023-06-14T06:17:21;17.40;53.80
80380;DHT22;69690;48.158;17.134;2023-06-14T06:22:23;17.40;53.70
80380;DHT22;69690;48.158;17.134;2023-06-14T06:27:24;17.50;54.10
80380;DHT22;69690;48.158;17.134;2023-06-14T06:32:26;17.50;53.70
80380;DHT22;69690;48.158;17.134;2023-06-14T06:37:28;17.60;53.80
80380;DHT22;69690;48.158;17.134;2023-06-14T06:42:29;17.70;54.00
80380;DHT22;69690;48.158;17.134;2023-06-14T06:47:35;17.80;54.70
80380;DHT22;69690;48.158;17.134;2023-06-14T06:52:36;17.90;54.60
80380;DHT22;69690;48.158;17.134;2023-06-14T06:57:37;18.00;54.50
80380;DHT22;69690;48.158;17.134;2023-06-14T07:02:39;18.10;54.40
80380;DHT22;69690;48.158;17.134;2023-06-14T07:07:40;18.30;54.40
80380;DHT22;69690;48.158;17.134;2023-06-14T07:12:41;18.50;53.70
80380;DHT22;69690;48.158;17.134;2023-06-14T07:17:42;18.80;54.70
80380;DHT22;69690;48.158;17.134;2023-06-14T07:22:45;19.20;54.10
80380;DHT22;69690;48.158;17.134;2023-06-14T07:27:46;19.40;52.30
80380;DHT22;69690;48.158;17.134;2023-06-14T07:32:48;19.40;51.60
80380;DHT22;69690;48.158;17.134;2023-06-14T07:37:50;19.40;51.90
80380;DHT22;69690;48.158;17.134;2023-06-14T07:42:51;19.40;52.10
80380;DHT22;69690;48.158;17.134;2023-06-14T07:47:55;19.40;52.20
80380;DHT22;69690;48.158;17.134;2023-06-14T07:52:56;19.60;51.50
80380;DHT22;69690;48.158;17.134;2023-06-14T07:57:57;19.60;51.60
80380;DHT22;69690;48.158;17.134;2023-06-14T08:02:59;19.80;51.70
80380;DHT22;69690;48.158;17.134;2023-06-14T08:08:01;19.90;51.70
80380;DHT22;69690;48.158;17.134;2023-06-14T08:13:02;20.00;50.50
80380;DHT22;69690;48.158;17.134;2023-06-14T08:18:04;20.10;49.60
80380;DHT22;69690;48.158;17.134;2023-06-14T08:23:05;20.20;48.50
80380;DHT22;69690;48.158;17.134;2023-06-14T08:28:06;20.30;48.00
80380;DHT22;69690;48.158;17.134;2023-06-14T08:33:07;20.30;48.00
80380;DHT22;69690;48.158;17.134;2023-06-14T08:38:10;20.50;46.50
80380;DHT22;69690;48.158;17.134;2023-06-14T08:43:12;20.50;45.10
80380;DHT22;69690;48.158;17.134;2023-06-14T08:48:13;20.40;43.10
80380;DHT22;69690;48.158;17.134;2023-06-14T08:53:18;20.50;43.60
80380;DHT22;69690;48.158;17.134;2023-06-14T08:58:21;20.80;44.60
80380;DHT22;69690;48.158;17.134;2023-06-14T09:03:25;21.20;42.90
80380;DHT22;69690;48.158;17.134;2023-06-14T09:08:30;21.50;43.20
80380;DHT22;69690;48.158;17.134;2023-06-14T09:13:32;22.00;43.90
80380;DHT22;69690;48.158;17.134;2023-06-14T09:18:38;22.20;43.10
80380;DHT22;69690;48.158;17.134;2023-06-14T09:23:45;22.10;43.00
80380;DHT22;69690;48.158;17.134;2023-06-14T09:28:49;22.10;43.80
80380;DHT22;69690;48.158;17.134;2023-06-14T09:33:51;22.40;44.20
80380;DHT22;69690;48.158;17.134;2023-06-14T09:38:57;22.20;43.20
80380;DHT22;69690;48.158;17.134;2023-06-14T09:43:59;22.20;43.10
80380;DHT22;69690;48.158;17.134;2023-06-14T09:49:04;22.60;43.30
80380;DHT22;69690;48.158;17.134;2023-06-14T09:54:06;23.10;41.00
80380;DHT22;69690;48.158;17.134;2023-06-14T09:59:09;23.20;39.80
80380;DHT22;69690;48.158;17.134;2023-06-14T10:04:13;23.20;39.50
80380;DHT22;69690;48.158;17.134;2023-06-14T10:09:16;23.90;40.80
80380;DHT22;69690;48.158;17.134;2023-06-14T10:14:18;25.80;37.40
80380;DHT22;69690;48.158;17.134;2023-06-14T10:19:36;30.00;32.90
80380;DHT22;69690;48.158;17.134;2023-06-14T10:24:43;27.60;32.50
80380;DHT22;69690;48.158;17.134;2023-06-14T10:35:04;24.90;36.00
80380;DHT22;69690;48.158;17.134;2023-06-14T10:40:07;26.90;33.80
80380;DHT22;69690;48.158;17.134;2023-06-14T10:45:13;29.00;31.70
80380;DHT22;69690;48.158;17.134;2023-06-14T10:50:14;28.70;32.00
80380;DHT22;69690;48.158;17.134;2023-06-14T10:55:18;27.60;33.20
80380;DHT22;69690;48.158;17.134;2023-06-14T11:00:20;26.80;34.80
80380;DHT22;69690;48.158;17.134;2023-06-14T11:05:27;25.90;35.90
80380;DHT22;69690;48.158;17.134;2023-06-14T11:10:56;25.00;36.70
80380;DHT22;69690;48.158;17.134;2023-06-14T11:16:00;24.60;38.00
80380;DHT22;69690;48.158;17.134;2023-06-14T11:21:01;24.50;38.30
80380;DHT22;69690;48.158;17.134;2023-06-14T11:26:05;24.30;38.30
80380;DHT22;69690;48.158;17.134;2023-06-14T11:31:07;24.10;38.80
80380;DHT22;69690;48.158;17.134;2023-06-14T11:36:10;24.00;39.30
80380;DHT22;69690;48.158;17.134;2023-06-14T11:41:11;23.90;39.60
80380;DHT22;69690;48.158;17.134;2023-06-14T11:46:15;23.80;38.90
80380;DHT22;69690;48.158;17.134;2023-06-14T11:51:18;23.80;39.10
80380;DHT22;69690;48.158;17.134;2023-06-14T11:56:21;23.50;38.50
80380;DHT22;69690;48.158;17.134;2023-06-14T12:01:22;23.90;38.60
80380;DHT22;69690;48.158;17.134;2023-06-14T12:06:28;26.00;36.10
80380;DHT22;69690;48.158;17.134;2023-06-14T12:11:35;27.00;33.60
80380;DHT22;69690;48.158;17.134;2023-06-14T12:16:40;27.40;33.10
80380;DHT22;69690;48.158;17.134;2023-06-14T12:21:48;28.00;31.30
80380;DHT22;69690;48.158;17.134;2023-06-14T12:26:51;26.60;31.50
80380;DHT22;69690;48.158;17.134;2023-06-14T12:31:53;27.70;31.40
80380;DHT22;69690;48.158;17.134;2023-06-14T12:36:59;29.00;30.50
80380;DHT22;69690;48.158;17.134;2023-06-14T12:42:00;28.10;29.70
80380;DHT22;69690;48.158;17.134;2023-06-14T12:47:04;27.40;31.30
80380;DHT22;69690;48.158;17.134;2023-06-14T12:52:06;28.20;32.00
80380;DHT22;69690;48.158;17.134;2023-06-14T12:57:08;28.50;29.80
80380;DHT22;69690;48.158;17.134;2023-06-14T13:02:12;28.10;30.70
80380;DHT22;69690;48.158;17.134;2023-06-14T13:07:17;28.10;31.10
80380;DHT22;69690;48.158;17.134;2023-06-14T13:12:18;26.40;31.80
80380;DHT22;69690;48.158;17.134;2023-06-14T13:17:19;26.20;33.10
80380;DHT22;69690;48.158;17.134;2023-06-14T13:22:21;26.80;32.30
80380;DHT22;69690;48.158;17.134;2023-06-14T13:27:22;27.30;32.90
80380;DHT22;69690;48.158;17.134;2023-06-14T13:32:25;27.40;31.90
80380;DHT22;69690;48.158;17.134;2023-06-14T13:37:26;26.90;33.60
80380;DHT22;69690;48.158;17.134;2023-06-14T13:42:28;26.30;34.10
80380;DHT22;69690;48.158;17.134;2023-06-14T13:47:32;25.90;34.40
80380;DHT22;69690;48.158;17.134;2023-06-14T13:52:33;25.60;35.00
80380;DHT22;69690;48.158;17.134;2023-06-14T13:57:35;25.30;35.30
80380;DHT22;69690;48.158;17.134;2023-06-14T14:02:37;25.20;35.50
80380;DHT22;69690;48.158;17.134;2023-06-14T14:07:38;25.10;35.30
80380;DHT22;69690;48.158;17.134;2023-06-14T14:12:40;25.00;35.40
80380;DHT22;69690;48.158;17.134;2023-06-14T14:17:41;25.00;35.60
80380;DHT22;69690;48.158;17.134;2023-06-14T14:22:42;24.90;35.80
80380;DHT22;69690;48.158;17.134;2023-06-14T14:27:44;24.80;35.90
80380;DHT22;69690;48.158;17.134;2023-06-14T14:32:45;24.70;36.00
80380;DHT22;69690;48.158;17.134;2023-06-14T14:37:46;24.60;36.00
80380;DHT22;69690;48.158;17.134;2023-06-14T14:42:47;24.80;35.80
80380;DHT22;69690;48.158;17.134;2023-06-14T14:47:48;24.50;36.90
80380;DHT22;69690;48.158;17.134;2023-06-14T14:52:50;24.70;36.90
80380;DHT22;69690;48.158;17.134;2023-06-14T14:57:51;24.80;37.00
80380;DHT22;69690;48.158;17.134;2023-06-14T15:02:52;25.20;37.00
80380;DHT22;69690;48.158;17.134;2023-06-14T15:07:54;25.20;36.80
80380;DHT22;69690;48.158;17.134;2023-06-14T15:12:55;25.10;36.40
80380;DHT22;69690;48.158;17.134;2023-06-14T15:17:56;25.20;36.70
80380;DHT22;69690;48.158;17.134;2023-06-14T15:22:57;24.90;37.20
80380;DHT22;69690;48.158;17.134;2023-06-14T15:28:02;24.70;37.90
80380;DHT22;69690;48.158;17.134;2023-06-14T15:33:07;24.40;38.50
80380;DHT22;69690;48.158;17.134;2023-06-14T15:38:08;24.30;38.90
80380;DHT22;69690;48.158;17.134;2023-06-14T15:43:09;24.20;38.90
80380;DHT22;69690;48.158;17.134;2023-06-14T15:48:10;24.20;38.90
80380;DHT22;69690;48.158;17.134;2023-06-14T15:53:12;24.10;38.50
80380;DHT22;69690;48.158;17.134;2023-06-14T15:58:13;24.10;38.80
80380;DHT22;69690;48.158;17.134;2023-06-14T16:03:15;24.00;38.90
80380;DHT22;69690;48.158;17.134;2023-06-14T16:08:16;23.90;39.00
80380;DHT22;69690;48.158;17.134;2023-06-14T16:13:17;23.90;38.90
80380;DHT22;69690;48.158;17.134;2023-06-14T16:18:18;23.70;38.70
80380;DHT22;69690;48.158;17.134;2023-06-14T16:23:20;23.80;38.50
80380;DHT22;69690;48.158;17.134;2023-06-14T16:28:24;23.80;38.20
80380;DHT22;69690;48.158;17.134;2023-06-14T16:33:25;24.00;38.00
80380;DHT22;69690;48.158;17.134;2023-06-14T16:38:26;24.10;38.40
80380;DHT22;69690;48.158;17.134;2023-06-14T16:43:28;24.00;38.80
80380;DHT22;69690;48.158;17.134;2023-06-14T16:48:29;23.90;39.10
80380;DHT22;69690;48.158;17.134;2023-06-14T16:53:30;23.80;39.50
80380;DHT22;69690;48.158;17.134;2023-06-14T16:58:31;23.70;39.90
80380;DHT22;69690;48.158;17.134;2023-06-14T17:03:33;23.70;39.90
80380;DHT22;69690;48.158;17.134;2023-06-14T17:08:34;23.60;40.20
80380;DHT22;69690;48.158;17.134;2023-06-14T17:13:36;23.50;40.10
80380;DHT22;69690;48.158;17.134;2023-06-14T17:18:37;23.70;40.20
80380;DHT22;69690;48.158;17.134;2023-06-14T17:23:38;23.70;40.50
80380;DHT22;69690;48.158;17.134;2023-06-14T17:28:39;23.60;40.10
80380;DHT22;69690;48.158;17.134;2023-06-14T17:33:41;23.50;40.60
80380;DHT22;69690;48.158;17.134;2023-06-14T17:38:42;23.40;41.20
80380;DHT22;69690;48.158;17.134;2023-06-14T17:43:43;23.30;41.50
80380;DHT22;69690;48.158;17.134;2023-06-14T17:48:44;23.30;41.60
80380;DHT22;69690;48.158;17.134;2023-06-14T17:53:46;23.30;42.00
80380;DHT22;69690;48.158;17.134;2023-06-14T17:58:47;23.30;42.30
80380;DHT22;69690;48.158;17.134;2023-06-14T18:03:48;23.20;42.50
80380;DHT22;69690;48.158;17.134;2023-06-14T18:08:49;23.20;42.80
80380;DHT22;69690;48.158;17.134;2023-06-14T18:13:51;23.00;43.20
80380;DHT22;69690;48.158;17.134;2023-06-14T18:18:53;22.80;43.60
80380;DHT22;69690;48.158;17.134;2023-06-14T18:23:55;22.60;44.30
80380;DHT22;69690;48.158;17.134;2023-06-14T18:28:56;22.50;45.10
80380;DHT22;69690;48.158;17.134;2023-06-14T18:33:57;22.20;45.50
80380;DHT22;69690;48.158;17.134;2023-06-14T18:38:58;22.10;46.00
80380;DHT22;69690;48.158;17.134;2023-06-14T18:44:00;22.00;46.50
80380;DHT22;69690;48.158;17.134;2023-06-14T18:49:01;21.80;47.20
80380;DHT22;69690;48.158;17.134;2023-06-14T18:54:02;21.60;47.60
80380;DHT22;69690;48.158;17.134;2023-06-14T18:59:04;21.50;48.00
80380;DHT22;69690;48.158;17.134;2023-06-14T19:04:05;21.30;47.90
80380;DHT22;69690;48.158;17.134;2023-06-14T19:09:08;21.20;47.90
80380;DHT22;69690;48.158;17.134;2023-06-14T19:14:10;21.10;48.00
80380;DHT22;69690;48.158;17.134;2023-06-14T19:19:14;20.90;48.20
80380;DHT22;69690;48.158;17.134;2023-06-14T19:24:15;20.80;48.50
80380;DHT22;69690;48.158;17.134;2023-06-14T19:29:16;20.80;48.30
80380;DHT22;69690;48.158;17.134;2023-06-14T19:34:19;20.70;48.40
80380;DHT22;69690;48.158;17.134;2023-06-14T19:39:21;20.60;48.60
80380;DHT22;69690;48.158;17.134;2023-06-14T19:44:22;20.50;48.80
80380;DHT22;69690;48.158;17.134;2023-06-14T19:49:23;20.50;48.90
80380;DHT22;69690;48.158;17.134;2023-06-14T19:54:24;20.40;49.00
80380;DHT22;69690;48.158;17.134;2023-06-14T19:59:25;20.30;48.40
80380;DHT22;69690;48.158;17.134;2023-06-14T20:04:27;20.30;48.20
80380;DHT22;69690;48.158;17.134;2023-06-14T20:09:28;20.30;48.10
80380;DHT22;69690;48.158;17.134;2023-06-14T20:14:32;20.20;48.40
80380;DHT22;69690;48.158;17.134;2023-06-14T20:19:34;20.20;48.70
80380;DHT22;69690;48.158;17.134;2023-06-14T20:24:35;20.10;48.90
80380;DHT22;69690;48.158;17.134;2023-06-14T20:29:38;20.00;49.00
80380;DHT22;69690;48.158;17.134;2023-06-14T20:34:39;20.00;49.10
80380;DHT22;69690;48.158;17.134;2023-06-14T20:39:40;19.90;49.40
80380;DHT22;69690;48.158;17.134;2023-06-14T20:44:42;19.80;49.70
80380;DHT22;69690;48.158;17.134;2023-06-14T20:49:43;19.80;50.00
80380;DHT22;69690;48.158;17.134;2023-06-14T20:54:45;19.60;50.50
80380;DHT22;69690;48.158;17.134;2023-06-14T20:59:46;19.50;50.90
80380;DHT22;69690;48.158;17.134;2023-06-14T21:04:47;19.40;50.80
80380;DHT22;69690;48.158;17.134;2023-06-14T21:09:48;19.30;51.10
80380;DHT22;69690;48.158;17.134;2023-06-14T21:14:50;19.20;52.00
80380;DHT22;69690;48.158;17.134;2023-06-14T21:19:51;19.10;52.50
80380;DHT22;69690;48.158;17.134;2023-06-14T21:24:53;19.00;52.90
80380;DHT22;69690;48.158;17.134;2023-06-14T21:29:54;18.90;53.10
80380;DHT22;69690;48.158;17.134;2023-06-14T21:34:55;18.80;53.10
80380;DHT22;69690;48.158;17.134;2023-06-14T21:39:57;18.70;53.40
80380;DHT22;69690;48.158;17.134;2023-06-14T21:44:58;18.60;54.00
80380;DHT22;69690;48.158;17.134;2023-06-14T21:49:59;18.60;54.20
80380;DHT22;69690;48.158;17.134;2023-06-14T21:55:01;18.50;54.20
80380;DHT22;69690;48.158;17.134;2023-06-14T22:00:03;18.40;54.20
80380;DHT22;69690;48.158;17.134;2023-06-14T22:05:05;18.40;55.30
80380;DHT22;69690;48.158;17.134;2023-06-14T22:10:09;18.50;59.80
80380;DHT22;69690;48.158;17.134;2023-06-14T22:15:10;18.70;63.40
80380;DHT22;69690;48.158;17.134;2023-06-14T22:20:14;18.70;59.20
80380;DHT22;69690;48.158;17.134;2023-06-14T22:25:15;18.30;58.00
80380;DHT22;69690;48.158;17.134;2023-06-14T22:30:17;18.20;57.70
80380;DHT22;69690;48.158;17.134;2023-06-14T22:35:19;18.20;58.40
80380;DHT22;69690;48.158;17.134;2023-06-14T22:40:20;18.20;58.30
80380;DHT22;69690;48.158;17.134;2023-06-14T22:45:21;18.10;58.30
80380;DHT22;69690;48.158;17.134;2023-06-14T22:50:29;18.00;58.30
80380;DHT22;69690;48.158;17.134;2023-06-14T22:55:30;17.80;57.90
80380;DHT22;69690;48.158;17.134;2023-06-14T23:00:32;17.70;57.90
80380;DHT22;69690;48.158;17.134;2023-06-14T23:05:34;17.70;57.70
80380;DHT22;69690;48.158;17.134;2023-06-14T23:10:36;17.50;57.80
80380;DHT22;69690;48.158;17.134;2023-06-14T23:15:38;17.40;58.10
80380;DHT22;69690;48.158;17.134;2023-06-14T23:20:39;17.40;58.30
80380;DHT22;69690;48.158;17.134;2023-06-14T23:25:40;17.30;58.70
80380;DHT22;69690;48.158;17.134;2023-06-14T23:30:42;17.20;59.00
80380;DHT22;69690;48.158;17.134;2023-06-14T23:35:46;17.20;59.40
80380;DHT22;69690;48.158;17.134;2023-06-14T23:40:47;17.20;59.50
80380;DHT22;69690;48.158;17.134;2023-06-14T23:45:50;17.10;59.20
80380;DHT22;69690;48.158;17.134;2023-06-14T23:50:56;17.10;59.20
80380;DHT22;69690;48.158;17.134;2023-06-14T23:55:57;17.00;59.00
